createdAt,value
2022-08-27T00:00:15.920Z,9.23
2022-08-27T00:03:03.005Z,9.10
2022-08-27T00:05:50.342Z,9.73
2022-08-27T00:08:37.226Z,9.38
2022-08-27T00:11:26.428Z,10.77
2022-08-27T00:14:14.952Z,10.10
2022-08-27T00:17:03.126Z,10.43
2022-08-27T00:19:50.385Z,10.73
2022-08-27T00:22:37.231Z,10.48
2022-08-27T00:25:24.016Z,9.63
2022-08-27T00:28:11.265Z,9.67
2022-08-27T00:30:58.159Z,9.10
2022-08-27T00:33:47.252Z,10.75
2022-08-27T00:36:34.163Z,10.35
2022-08-27T00:39:21.453Z,10.27
2022-08-27T00:42:08.543Z,3.30
2022-08-27T00:44:55.780Z,3.35
2022-08-27T00:47:58.187Z,2.67
2022-08-27T00:50:51.940Z,2.20
2022-08-27T00:53:39.009Z,2.57
2022-08-27T00:56:28.965Z,2.33
2022-08-27T00:59:18.611Z,2.00
2022-08-27T01:02:21.141Z,2.05
2022-08-27T01:05:13.310Z,1.63
2022-08-27T01:08:09.763Z,1.90
2022-08-27T01:10:59.295Z,2.03
2022-08-27T01:13:59.595Z,2.30
2022-08-27T01:16:52.722Z,2.53
2022-08-27T01:19:43.757Z,2.10
2022-08-27T01:22:36.856Z,2.60
2022-08-27T01:25:26.561Z,2.00
2022-08-27T01:28:14.826Z,1.70
2022-08-27T01:31:02.659Z,2.20
2022-08-27T01:33:58.850Z,1.77
2022-08-27T01:36:46.100Z,2.03
2022-08-27T01:39:32.757Z,2.20
2022-08-27T01:42:24.871Z,1.90
2022-08-27T01:45:14.478Z,2.10
2022-08-27T01:48:02.685Z,1.90
2022-08-27T01:50:49.900Z,2.47
2022-08-27T01:53:36.482Z,1.83
2022-08-27T01:56:23.620Z,2.10
2022-08-27T01:59:12.256Z,2.13
2022-08-27T02:01:59.604Z,2.17
2022-08-27T02:04:46.897Z,2.20
2022-08-27T02:07:34.000Z,1.90
2022-08-27T02:10:25.057Z,2.47
2022-08-27T02:13:13.760Z,2.33
2022-08-27T02:16:04.191Z,2.17
2022-08-27T02:18:54.381Z,2.00
2022-08-27T02:21:43.206Z,2.37
2022-08-27T02:24:29.958Z,2.20
2022-08-27T02:27:17.048Z,2.20
2022-08-27T02:30:04.495Z,2.20
2022-08-27T02:32:53.008Z,2.63
2022-08-27T02:35:42.952Z,2.60
2022-08-27T02:38:29.776Z,2.57
2022-08-27T02:41:16.895Z,2.40
2022-08-27T02:44:07.846Z,2.00
2022-08-27T02:46:57.650Z,2.67
2022-08-27T02:49:46.133Z,2.43
2022-08-27T02:52:32.921Z,2.30
2022-08-27T02:55:22.357Z,2.50
2022-08-27T02:58:09.785Z,2.10
2022-08-27T03:00:56.921Z,2.17
2022-08-27T03:03:43.823Z,2.47
2022-08-27T03:06:32.152Z,2.90
2022-08-27T03:09:19.223Z,2.30
2022-08-27T03:12:06.377Z,2.57
2022-08-27T03:14:53.329Z,2.70
2022-08-27T03:18:00.085Z,2.63
2022-08-27T03:20:50.786Z,2.53
2022-08-27T03:23:38.895Z,2.30
2022-08-27T03:26:25.797Z,2.67
2022-08-27T03:29:13.070Z,2.50
2022-08-27T03:32:00.288Z,2.23
2022-08-27T03:34:47.397Z,2.30
2022-08-27T03:37:34.056Z,2.60
2022-08-27T03:40:22.707Z,2.80
2022-08-27T03:43:10.372Z,2.30
2022-08-27T03:46:00.631Z,2.83
2022-08-27T03:48:48.870Z,2.30
2022-08-27T03:51:40.552Z,2.63
2022-08-27T03:54:27.381Z,2.70
2022-08-27T03:57:15.498Z,2.60
2022-08-27T04:00:02.532Z,2.60
2022-08-27T04:02:49.821Z,2.60
2022-08-27T04:05:37.301Z,3.03
2022-08-27T04:08:25.667Z,2.20
2022-08-27T04:11:12.546Z,2.63
2022-08-27T04:14:01.032Z,2.77
2022-08-27T04:16:48.706Z,2.70
2022-08-27T04:19:39.301Z,2.73
2022-08-27T04:22:26.012Z,2.90
2022-08-27T04:25:13.027Z,2.73
2022-08-27T04:28:00.006Z,2.60
2022-08-27T04:30:48.827Z,2.57
2022-08-27T04:33:36.496Z,2.73
2022-08-27T04:36:23.236Z,2.63
2022-08-27T04:39:10.243Z,2.57
2022-08-27T04:41:59.671Z,2.73
2022-08-27T04:44:47.376Z,2.93
2022-08-27T04:47:35.856Z,3.00
2022-08-27T04:50:22.741Z,3.33
2022-08-27T04:53:12.289Z,3.10
2022-08-27T04:55:59.497Z,3.33
2022-08-27T04:58:46.385Z,3.00
2022-08-27T05:01:33.874Z,3.00
2022-08-27T05:04:22.471Z,3.27
2022-08-27T05:07:13.441Z,2.90
2022-08-27T05:10:00.405Z,3.00
2022-08-27T05:12:46.963Z,3.03
2022-08-27T05:15:33.931Z,3.07
2022-08-27T05:18:20.926Z,3.10
2022-08-27T05:21:12.652Z,3.17
2022-08-27T05:24:01.601Z,3.47
2022-08-27T05:26:48.692Z,3.23
2022-08-27T05:29:35.196Z,2.87
2022-08-27T05:32:21.933Z,3.20
2022-08-27T05:35:13.925Z,2.90
2022-08-27T05:38:04.169Z,3.00
2022-08-27T05:40:51.305Z,2.57
2022-08-27T05:43:39.049Z,3.17
2022-08-27T05:46:27.943Z,2.90
2022-08-27T05:49:15.336Z,2.43
2022-08-27T05:52:02.428Z,3.17
2022-08-27T05:54:50.772Z,3.57
2022-08-27T05:57:37.743Z,2.97
2022-08-27T06:00:42.248Z,3.33
2022-08-27T06:03:28.932Z,3.40
2022-08-27T06:06:15.478Z,3.10
2022-08-27T06:09:02.728Z,2.77
2022-08-27T06:11:51.809Z,3.17
2022-08-27T06:14:39.552Z,3.27
2022-08-27T06:17:26.480Z,3.40
2022-08-27T06:20:29.904Z,2.80
2022-08-27T06:23:27.907Z,3.50
2022-08-27T06:26:17.960Z,3.70
2022-08-27T06:29:08.567Z,3.30
2022-08-27T06:31:56.411Z,3.33
2022-08-27T06:34:43.537Z,3.00
2022-08-27T06:37:31.054Z,4.23
2022-08-27T06:40:18.353Z,5.17
2022-08-27T06:43:05.651Z,4.55
2022-08-27T06:45:54.807Z,5.03
2022-08-27T06:48:45.017Z,5.07
2022-08-27T06:51:34.239Z,5.50
2022-08-27T06:54:20.921Z,5.63
2022-08-27T06:57:07.998Z,5.95
2022-08-27T06:59:55.012Z,5.38
2022-08-27T07:02:44.105Z,5.87
2022-08-27T07:05:31.857Z,4.95
2022-08-27T07:08:19.240Z,3.80
2022-08-27T07:11:06.678Z,4.00
2022-08-27T07:13:53.992Z,4.20
2022-08-27T07:16:41.715Z,5.93
2022-08-27T07:19:32.178Z,5.78
2022-08-27T07:22:19.578Z,4.53
2022-08-27T07:25:06.812Z,6.30
2022-08-27T07:27:54.315Z,6.22
2022-08-27T07:30:41.473Z,7.03
2022-08-27T07:33:28.788Z,6.70
2022-08-27T07:36:19.883Z,6.88
2022-08-27T07:39:07.866Z,6.35
2022-08-27T07:42:15.183Z,6.22
2022-08-27T07:45:02.313Z,6.35
2022-08-27T07:47:50.272Z,6.70
2022-08-27T07:50:37.427Z,7.72
2022-08-27T07:53:25.609Z,7.25
2022-08-27T07:56:13.219Z,7.97
2022-08-27T07:59:00.647Z,8.50
2022-08-27T08:01:49.104Z,9.43
2022-08-27T08:04:36.131Z,8.40
2022-08-27T08:07:25.157Z,8.07
2022-08-27T08:10:13.820Z,9.10
2022-08-27T08:13:00.797Z,8.38
2022-08-27T08:15:49.386Z,8.23
2022-08-27T08:18:37.465Z,7.45
2022-08-27T08:21:24.792Z,8.02
2022-08-27T08:24:11.907Z,6.93
2022-08-27T08:27:03.838Z,8.02
2022-08-27T08:29:53.505Z,7.60
2022-08-27T08:32:40.911Z,7.50
2022-08-27T08:35:28.178Z,7.65
2022-08-27T08:38:28.320Z,7.55
2022-08-27T08:41:33.681Z,7.32
2022-08-27T08:44:32.516Z,7.85
2022-08-27T08:47:24.568Z,8.65
2022-08-27T08:50:19.679Z,8.20
2022-08-27T08:53:11.886Z,7.40
2022-08-27T08:56:02.859Z,7.90
2022-08-27T08:58:56.946Z,8.27
2022-08-27T09:01:45.832Z,7.38
2022-08-27T09:04:32.642Z,7.85
2022-08-27T09:07:26.299Z,7.68
2022-08-27T09:10:23.386Z,7.10
2022-08-27T09:13:24.136Z,8.23
2022-08-27T09:16:11.586Z,5.88
2022-08-27T09:19:03.106Z,6.18
2022-08-27T09:22:01.296Z,6.75
2022-08-27T09:24:56.617Z,7.63
2022-08-27T09:27:44.962Z,6.85
2022-08-27T09:30:42.387Z,7.05
2022-08-27T09:33:44.558Z,6.45
2022-08-27T09:36:53.566Z,6.10
2022-08-27T09:39:51.516Z,6.35
2022-08-27T09:42:43.821Z,5.95
2022-08-27T09:45:33.086Z,6.10
2022-08-27T09:48:22.761Z,5.38
2022-08-27T09:51:13.889Z,6.10
2022-08-27T09:54:04.522Z,5.97
2022-08-27T09:56:51.857Z,6.30
2022-08-27T09:59:41.433Z,6.20
2022-08-27T10:02:29.402Z,6.20
2022-08-27T10:05:24.341Z,6.40
2022-08-27T10:08:23.504Z,6.93
2022-08-27T10:11:19.715Z,6.47
2022-08-27T10:14:14.541Z,6.18
2022-08-27T10:17:13.746Z,6.32
2022-08-27T10:20:08.897Z,6.45
2022-08-27T10:23:06.556Z,6.57
2022-08-27T10:26:00.302Z,6.38
2022-08-27T10:29:01.402Z,6.60
2022-08-27T10:32:01.348Z,6.10
2022-08-27T10:34:59.744Z,7.45
2022-08-27T10:37:59.413Z,7.25
2022-08-27T10:40:55.470Z,6.32
2022-08-27T10:44:17.907Z,6.30
2022-08-27T10:47:20.116Z,7.57
2022-08-27T10:50:09.943Z,6.72
2022-08-27T10:53:01.765Z,6.93
2022-08-27T10:55:55.833Z,6.68
2022-08-27T10:58:55.137Z,7.85
2022-08-27T11:01:50.756Z,6.65
2022-08-27T11:04:42.335Z,6.72
2022-08-27T11:07:34.075Z,7.20
2022-08-27T11:10:26.315Z,7.38
2022-08-27T11:13:19.982Z,7.75
2022-08-27T11:16:17.705Z,7.32
2022-08-27T11:19:14.070Z,7.57
2022-08-27T11:22:12.060Z,6.85
2022-08-27T11:25:07.597Z,7.22
2022-08-27T11:27:56.225Z,7.10
2022-08-27T11:30:53.915Z,6.85
2022-08-27T11:33:48.634Z,7.22
2022-08-27T11:37:00.951Z,6.00
2022-08-27T11:40:06.314Z,8.05
2022-08-27T11:42:56.598Z,7.63
2022-08-27T11:45:56.199Z,8.35
2022-08-27T11:48:56.417Z,8.43
2022-08-27T11:51:43.326Z,7.60
2022-08-27T11:54:33.896Z,7.32
2022-08-27T11:57:30.581Z,7.55
2022-08-27T12:00:22.765Z,7.30
2022-08-27T12:03:12.391Z,8.30
2022-08-27T12:06:19.705Z,6.60
2022-08-27T12:09:15.605Z,7.10
2022-08-27T12:12:10.487Z,7.68
2022-08-27T12:15:06.365Z,8.32
2022-08-27T12:18:16.784Z,7.90
2022-08-27T12:21:21.118Z,6.80
2022-08-27T12:24:23.334Z,6.78
2022-08-27T12:27:34.586Z,7.85
2022-08-27T12:30:27.986Z,6.65
2022-08-27T12:33:28.214Z,7.15
2022-08-27T12:36:27.763Z,6.03
2022-08-27T12:39:18.462Z,7.20
2022-08-27T12:42:16.447Z,6.32
2022-08-27T12:45:06.899Z,3.60
2022-08-27T12:47:55.495Z,3.60
2022-08-27T12:50:42.718Z,2.78
2022-08-27T12:53:43.064Z,3.22
2022-08-27T12:56:42.081Z,2.65
2022-08-27T12:59:50.475Z,3.08
2022-08-27T13:03:07.088Z,3.10
2022-08-27T13:05:57.463Z,3.05
2022-08-27T13:08:46.780Z,2.58
2022-08-27T13:11:46.400Z,3.22
2022-08-27T13:14:38.430Z,2.95
2022-08-27T13:17:25.987Z,2.83
2022-08-27T13:20:22.531Z,2.67
2022-08-27T13:23:19.857Z,2.40
2022-08-27T13:26:09.594Z,3.08
2022-08-27T13:29:03.090Z,3.08
2022-08-27T13:31:51.644Z,2.33
2022-08-27T13:34:41.107Z,2.50
2022-08-27T13:37:35.879Z,2.28
2022-08-27T13:40:30.634Z,2.63
2022-08-27T13:43:18.656Z,2.67
2022-08-27T13:46:11.169Z,2.78
2022-08-27T13:49:00.329Z,2.53
2022-08-27T13:51:48.312Z,2.35
2022-08-27T13:54:36.044Z,2.47
2022-08-27T13:57:28.320Z,2.33
2022-08-27T14:00:27.341Z,2.42
2022-08-27T14:03:26.167Z,2.80
2022-08-27T14:06:24.856Z,2.85
2022-08-27T14:09:25.328Z,3.50
2022-08-27T14:12:23.473Z,3.10
2022-08-27T14:15:24.100Z,3.50
2022-08-27T14:18:32.390Z,3.20
2022-08-27T14:21:32.030Z,3.15
2022-08-27T14:24:18.900Z,3.40
2022-08-27T14:27:10.145Z,3.67
2022-08-27T14:29:58.812Z,3.90
2022-08-27T14:33:19.892Z,3.95
2022-08-27T14:36:26.951Z,3.28
2022-08-27T14:39:27.088Z,3.20
2022-08-27T14:42:28.709Z,2.83
2022-08-27T14:45:38.121Z,2.55
2022-08-27T14:48:37.672Z,2.70
2022-08-27T14:51:46.863Z,2.60
2022-08-27T14:54:53.857Z,2.30
2022-08-27T14:57:54.134Z,2.08
2022-08-27T15:01:02.874Z,1.67
2022-08-27T15:04:04.109Z,1.67
2022-08-27T15:07:10.852Z,1.90
2022-08-27T15:10:17.874Z,1.80
2022-08-27T15:13:19.142Z,1.67
2022-08-27T15:16:29.899Z,1.70
2022-08-27T15:19:37.891Z,1.80
2022-08-27T15:22:44.177Z,1.80
2022-08-27T15:25:53.138Z,1.48
2022-08-27T15:28:53.147Z,2.30
2022-08-27T15:32:01.911Z,1.75
2022-08-27T15:35:08.902Z,2.10
2022-08-27T15:38:12.588Z,2.67
2022-08-27T15:41:21.115Z,2.17
2022-08-27T15:44:27.914Z,1.55
2022-08-27T15:47:30.033Z,2.08
2022-08-27T15:50:38.146Z,2.00
2022-08-27T15:53:44.873Z,2.45
2022-08-27T15:56:45.673Z,2.42
2022-08-27T15:59:52.887Z,2.72
2022-08-27T16:02:55.646Z,3.00
2022-08-27T16:06:05.083Z,2.38
2022-08-27T16:09:12.878Z,2.50
2022-08-27T16:12:13.350Z,2.65
2022-08-27T16:15:34.916Z,2.83
2022-08-27T16:18:45.915Z,3.03
2022-08-27T16:21:47.423Z,3.10
2022-08-27T16:24:53.919Z,2.72
2022-08-27T16:27:54.743Z,3.35
2022-08-27T16:31:11.403Z,3.30
2022-08-27T16:34:23.917Z,2.83
2022-08-27T16:37:25.154Z,3.30
2022-08-27T16:40:31.946Z,2.80
2022-08-27T16:43:40.899Z,3.00
2022-08-27T16:46:40.886Z,3.38
2022-08-27T16:50:05.900Z,3.15
2022-08-27T16:53:09.006Z,3.30
2022-08-27T16:56:15.911Z,3.63
2022-08-27T16:59:27.914Z,3.33
2022-08-27T17:02:35.942Z,3.83
2022-08-27T17:05:43.916Z,3.10
2022-08-27T17:08:51.904Z,3.33
2022-08-27T17:11:54.819Z,3.58
2022-08-27T17:15:02.890Z,2.97
2022-08-27T17:18:11.031Z,3.30
2022-08-27T17:21:13.205Z,3.05
2022-08-27T17:24:18.941Z,3.28
2022-08-27T17:27:20.419Z,3.33
2022-08-27T17:30:27.007Z,3.00
2022-08-27T17:33:38.952Z,3.22
2022-08-27T17:36:40.099Z,3.30
2022-08-27T17:39:50.998Z,3.58
2022-08-27T17:42:50.913Z,3.58
2022-08-27T17:45:58.015Z,3.65
2022-08-27T17:49:05.938Z,3.15
2022-08-27T17:52:11.063Z,3.42
2022-08-27T17:55:18.041Z,3.00
2022-08-27T17:58:24.943Z,3.05
2022-08-27T18:01:28.330Z,3.38
2022-08-27T18:04:36.990Z,3.30
2022-08-27T18:07:46.167Z,3.13
2022-08-27T18:10:47.101Z,3.35
2022-08-27T18:13:54.916Z,3.65
2022-08-27T18:16:55.138Z,3.30
2022-08-27T18:20:01.975Z,3.58
2022-08-27T18:23:10.954Z,4.07
2022-08-27T18:26:16.569Z,2.95
2022-08-27T18:29:23.957Z,3.50
2022-08-27T18:32:30.034Z,3.30
2022-08-27T18:35:33.200Z,3.28
2022-08-27T18:38:41.957Z,3.40
2022-08-27T18:41:42.118Z,3.27
2022-08-27T18:44:58.643Z,2.97
2022-08-27T18:48:08.961Z,3.63
2022-08-27T18:51:12.190Z,3.47
2022-08-27T18:54:19.969Z,3.37
2022-08-27T18:57:26.957Z,2.87
2022-08-27T19:00:26.967Z,3.23
2022-08-27T19:03:36.106Z,3.30
2022-08-27T19:06:48.965Z,2.70
2022-08-27T19:09:51.157Z,3.20
2022-08-27T19:12:59.124Z,3.10
2022-08-27T19:16:03.113Z,3.13
2022-08-27T19:19:09.970Z,4.00
2022-08-27T19:22:16.127Z,3.70
2022-08-27T19:25:18.119Z,3.30
2022-08-27T19:28:26.978Z,3.37
2022-08-27T19:31:27.650Z,3.77
2022-08-27T19:34:33.216Z,3.50
2022-08-27T19:37:42.958Z,3.23
2022-08-27T19:40:44.905Z,3.60
2022-08-27T19:43:52.136Z,3.70
2022-08-27T19:47:02.082Z,3.93
2022-08-27T19:50:03.124Z,3.70
2022-08-27T19:53:08.995Z,3.90
2022-08-27T19:56:13.211Z,4.03
2022-08-27T19:59:25.861Z,4.03
2022-08-27T20:02:32.985Z,4.27
2022-08-27T20:05:47.001Z,3.83
2022-08-27T20:08:55.020Z,3.30
2022-08-27T20:12:03.011Z,3.60
2022-08-27T20:15:03.944Z,3.57
2022-08-27T20:21:27.951Z,3.77
2022-08-27T20:24:38.080Z,3.60
2022-08-27T20:27:53.041Z,3.77
2022-08-27T20:31:16.822Z,3.43
2022-08-27T20:34:41.065Z,3.87
2022-08-27T20:38:34.300Z,3.67
2022-08-27T20:42:12.025Z,3.87
2022-08-27T20:52:37.134Z,3.50
2022-08-27T20:55:37.824Z,4.17
2022-08-27T20:59:06.171Z,3.57
2022-08-27T21:02:21.926Z,3.33
2022-08-27T21:05:29.115Z,4.40
2022-08-27T21:08:37.998Z,3.23
2022-08-27T21:14:49.781Z,3.87
2022-08-27T21:18:03.100Z,3.50
2022-08-27T21:21:05.829Z,3.47
2022-08-27T21:24:13.039Z,3.50
2022-08-27T21:27:19.049Z,4.23
2022-08-27T21:30:21.456Z,5.47
2022-08-27T21:33:29.380Z,4.77
2022-08-27T21:36:37.193Z,5.07
2022-08-27T21:39:37.175Z,5.67
2022-08-27T21:42:45.305Z,5.70
2022-08-27T21:45:46.517Z,5.53
2022-08-27T21:48:59.006Z,5.63
2022-08-27T21:52:06.227Z,4.70
2022-08-27T21:55:06.646Z,5.40
2022-08-27T21:58:13.304Z,5.53
2022-08-27T22:01:21.080Z,7.67
2022-08-27T22:04:22.888Z,6.53
2022-08-27T22:07:32.239Z,6.47
2022-08-27T22:10:39.246Z,6.47
2022-08-27T22:13:40.374Z,8.13
2022-08-27T22:16:48.164Z,7.70
2022-08-27T22:19:50.587Z,9.07
2022-08-27T22:22:57.301Z,8.40
2022-08-27T22:26:07.319Z,7.23
2022-08-27T22:29:08.343Z,6.63
2022-08-27T22:32:15.205Z,7.03
2022-08-27T22:35:25.067Z,6.87
2022-08-27T22:38:28.168Z,7.73
2022-08-27T22:41:35.036Z,7.40
2022-08-27T22:44:35.165Z,6.43
2022-08-27T22:47:42.043Z,6.47
2022-08-27T22:50:50.050Z,7.97
2022-08-27T22:53:49.824Z,7.17
2022-08-27T22:56:57.060Z,8.17
2022-08-27T23:00:05.297Z,7.23
2022-08-27T23:03:06.994Z,7.70
2022-08-27T23:06:15.218Z,7.10
2022-08-27T23:09:15.286Z,7.50
2022-08-27T23:12:22.068Z,7.00
2022-08-27T23:15:31.335Z,7.10
2022-08-27T23:18:32.273Z,7.17
2022-08-27T23:21:40.078Z,8.45
2022-08-27T23:25:07.354Z,7.03
2022-08-27T23:28:07.082Z,7.33
2022-08-27T23:31:16.363Z,6.87
2022-08-27T23:34:16.218Z,7.10
2022-08-27T23:37:24.070Z,6.78
2022-08-27T23:40:32.174Z,7.13
2022-08-27T23:43:31.828Z,7.10
2022-08-27T23:46:39.085Z,7.50
2022-08-27T23:49:39.995Z,7.97
2022-08-27T23:52:49.067Z,8.05
2022-08-27T23:55:55.086Z,7.33
2022-08-27T23:58:55.425Z,7.40
